Time;durP1;ratioP1;P1;durP2;ratioP2;P2;SDS_P1;SDS_P2;PMS_P1;PMS_P2;Temp;Humidity;BMP_temperature;BMP_pressure;BME280_temperature;BME280_humidity;BME280_pressure;Samples;Min_cycle;Max_cycle;Signal;HPM_P1;HPM_P2
2022/06/08 00:01:29;;;;;;;2.33;1.73;;;;;;;15.36;82.70;101117.53;5071659;28;20418;-80
2022/06/08 00:03:59;;;;;;;3.58;1.70;;;;;;;15.36;82.55;101120.19;5087297;28;20036;-80
2022/06/08 00:06:24;;;;;;;2.50;1.80;;;;;;;15.35;82.68;101105.31;5089570;28;20104;-80
2022/06/08 00:08:50;;;;;;;4.63;2.47;;;;;;;15.35;82.79;101102.66;5066748;28;20040;-80
2022/06/08 00:11:16;;;;;;;6.82;3.42;;;;;;;15.34;82.76;101100.94;5081709;28;20032;-80
2022/06/08 00:13:42;;;;;;;5.03;2.53;;;;;;;15.34;83.26;101100.09;5064839;28;20029;-80
2022/06/08 00:16:09;;;;;;;4.88;3.03;;;;;;;15.33;83.24;101091.34;5063742;28;20397;-80
2022/06/08 00:18:34;;;;;;;4.45;3.20;;;;;;;15.35;83.30;101093.88;5064723;28;20036;-80
2022/06/08 00:21:00;;;;;;;3.83;3.13;;;;;;;15.34;83.35;101095.66;5064006;28;20106;-80
2022/06/08 00:23:26;;;;;;;4.13;3.67;;;;;;;15.34;83.79;101084.28;5063830;28;20385;-80
2022/06/08 00:25:51;;;;;;;6.35;3.63;;;;;;;15.34;83.87;101093.03;5081992;28;20028;-80
2022/06/08 00:28:16;;;;;;;4.68;3.67;;;;;;;15.34;83.95;101079.00;5081830;28;20350;-80
2022/06/08 00:30:42;;;;;;;4.70;4.03;;;;;;;15.34;84.21;101079.00;5064032;28;20071;-80
2022/06/08 00:33:08;;;;;;;7.85;4.63;;;;;;;15.34;83.97;101087.75;5063921;28;20044;-80
2022/06/08 00:35:33;;;;;;;5.90;4.57;;;;;;;15.34;84.05;101079.00;5082319;28;20040;-80
2022/06/08 00:37:59;;;;;;;7.80;5.75;;;;;;;15.33;84.34;101069.34;5043832;28;20297;-80
2022/06/08 00:40:41;;;;;;;8.80;5.72;;;;;;;15.34;84.32;101068.44;5044020;28;20048;-80
2022/06/08 00:43:07;;;;;;;8.00;6.20;;;;;;;15.33;84.12;101061.44;5079223;28;20389;-80
2022/06/08 00:45:33;;;;;;;9.10;6.63;;;;;;;15.32;84.03;101057.97;5081238;28;20033;-80
2022/06/08 00:48:02;;;;;;;11.07;7.00;;;;;;;15.32;84.03;101054.50;5063955;28;20040;-80
2022/06/08 00:50:42;;;;;;;9.18;7.38;;;;;;;15.32;84.41;101057.97;5081803;28;20034;-80
2022/06/08 00:53:09;;;;;;;6.88;6.28;;;;;;;15.32;84.28;101043.94;5081135;28;20300;-80
2022/06/08 00:55:38;;;;;;;9.70;6.80;;;;;;;15.32;84.34;101055.31;5063814;28;20105;-80
2022/06/08 00:58:25;;;;;;;;;;;;;;;15.31;84.28;101034.31;5063922;28;20039;-80
2022/06/08 01:00:52;;;;;;;7.78;6.78;;;;;;;15.30;83.98;101032.63;5063793;28;19932;-80
2022/06/08 01:03:18;;;;;;;7.63;6.55;;;;;;;15.29;84.11;101034.38;5080934;28;20347;-80
2022/06/08 01:05:46;;;;;;;7.30;6.60;;;;;;;15.29;84.05;101028.25;5062998;28;20032;-80
2022/06/08 01:08:26;;;;;;;;;;;;;;;15.29;84.51;101025.63;5081641;28;20040;-80
2022/06/08 01:10:57;;;;;;;9.15;7.20;;;;;;;15.27;84.48;101017.78;5081399;28;20104;-80
2022/06/08 01:13:23;;;;;;;7.82;6.60;;;;;;;15.27;84.55;101023.06;5062731;28;20121;-80
2022/06/08 01:15:49;;;;;;;6.53;5.93;;;;;;;15.27;84.67;101022.22;5080948;28;20031;-80
2022/06/08 01:18:15;;;;;;;6.45;5.85;;;;;;;15.26;84.66;101024.03;5062614;28;20032;-80
2022/06/08 01:21:21;;;;;;;7.95;6.78;;;;;;;15.28;84.53;101021.28;5081049;28;20145;-80
2022/06/08 01:24:09;;;;;;;8.73;6.35;;;;;;;15.26;84.40;101012.59;5049808;28;20044;-80
2022/06/08 01:26:42;;;;;;;6.72;5.68;;;;;;;15.26;84.49;101010.84;5074045;28;20036;-80
2022/06/08 01:29:31;;;;;;;6.65;6.00;;;;;;;15.26;84.53;101009.97;5081287;28;20232;-80
2022/06/08 01:32:02;;;;;;;7.10;5.68;;;;;;;15.25;84.32;101006.47;5081041;28;20040;-80
2022/06/08 01:34:32;;;;;;;8.35;5.70;;;;;;;15.25;84.55;100993.28;5062739;28;20040;-80
2022/06/08 01:37:38;;;;;;;6.25;5.65;;;;;;;15.25;84.39;100990.66;5062680;28;20025;-80
2022/06/08 01:40:33;;;;;;;7.03;5.85;;;;;;;15.25;84.34;100992.44;5075728;28;20041;-80
2022/06/08 01:43:39;;;;;;;7.13;6.05;;;;;;;15.24;84.37;100991.59;5053611;28;20266;-80
2022/06/08 01:46:11;;;;;;;6.28;5.55;;;;;;;15.23;84.34;100983.78;5046987;28;20273;-80
2022/06/08 01:48:52;;;;;;;5.60;4.90;;;;;;;15.22;84.23;100974.16;5080574;28;20044;-80
2022/06/08 01:51:45;;;;;;;7.80;5.75;;;;;;;15.21;83.91;100967.16;5062192;28;20028;-80
2022/06/08 01:54:37;;;;;;;5.70;5.20;;;;;;;15.21;84.00;100975.06;5062114;28;20065;-80
2022/06/08 01:57:34;;;;;;;5.53;5.13;;;;;;;15.20;84.15;100968.13;5080146;28;20032;-80
2022/06/08 02:00:11;;;;;;;5.00;4.60;;;;;;;15.19;83.87;100969.03;5062161;28;20036;-80
2022/06/08 02:03:06;;;;;;;4.82;4.43;;;;;;;15.18;83.78;100960.28;5080158;28;20043;-80
2022/06/08 02:05:43;;;;;;;5.32;4.80;;;;;;;15.16;83.90;100965.66;5062324;28;20085;-80
2022/06/08 02:08:23;;;;;;;4.45;4.03;;;;;;;15.17;83.95;100963.84;5079516;28;20036;-80
2022/06/08 02:10:57;;;;;;;4.43;4.00;;;;;;;15.15;83.85;100958.69;5080514;28;20032;-80
2022/06/08 02:13:33;;;;;;;4.50;4.10;;;;;;;15.14;84.00;100951.69;5079654;28;20276;-80
2022/06/08 02:16:06;;;;;;;4.50;4.10;;;;;;;15.12;83.79;100950.09;5062247;28;20356;-80
2022/06/08 02:18:40;;;;;;;4.47;4.18;;;;;;;15.12;83.72;100948.31;5079727;28;20036;-80
2022/06/08 02:21:16;;;;;;;4.80;3.70;;;;;;;15.10;83.91;100942.28;5072791;28;20052;-80
2022/06/08 02:23:47;;;;;;;4.03;3.63;;;;;;;15.11;83.81;100943.97;5059257;28;20123;-80
2022/06/08 02:26:18;;;;;;;3.88;3.42;;;;;;;15.12;83.57;100942.19;5041489;28;20323;-80
2022/06/08 02:28:52;;;;;;;3.78;3.47;;;;;;;15.10;83.64;100938.81;5041784;28;20024;-80
2022/06/08 02:31:23;;;;;;;3.90;3.25;;;;;;;15.08;83.77;100928.34;5059458;28;20044;-80
2022/06/08 02:36:48;;;;;;;4.00;3.25;;;;;;;15.08;83.70;100932.72;5059877;28;20079;-80
2022/06/08 02:39:18;;;;;;;4.90;3.25;;;;;;;15.08;83.85;100924.81;5041074;28;20264;-80
2022/06/08 02:41:47;;;;;;;3.38;3.08;;;;;;;15.07;83.74;100923.13;5060590;28;20036;-80
2022/06/08 02:44:18;;;;;;;4.05;2.88;;;;;;;15.07;83.72;100926.63;5041425;28;20033;-80
2022/06/08 02:46:49;;;;;;;3.97;2.85;;;;;;;15.06;83.61;100918.78;5041666;28;20071;-80
2022/06/08 02:49:15;;;;;;;3.30;2.97;;;;;;;15.05;83.57;100915.31;5059134;28;20037;-80
2022/06/08 02:51:46;;;;;;;3.97;2.97;;;;;;;15.06;83.27;100921.44;5059814;28;20029;-80
2022/06/08 02:54:24;;;;;;;2.90;2.70;;;;;;;15.05;83.67;100911.84;5059090;28;20040;-80
2022/06/08 02:57:05;;;;;;;2.87;2.67;;;;;;;15.04;83.44;100916.25;5060022;28;20233;-80
2022/06/08 02:59:46;;;;;;;2.90;2.70;;;;;;;15.05;83.39;100917.09;5059135;28;20063;-80
2022/06/08 03:02:15;;;;;;;2.83;2.63;;;;;;;15.03;83.53;100911.91;5041204;28;20025;-80
2022/06/08 03:04:56;;;;;;;2.72;2.53;;;;;;;15.03;83.24;100909.28;5059539;28;20033;-80
2022/06/08 03:07:29;;;;;;;2.70;2.47;;;;;;;15.03;83.25;100893.47;5041637;28;20236;-80
2022/06/08 03:09:57;;;;;;;6.93;3.28;;;;;;;15.03;83.56;100906.66;5062870;28;20028;-80
2022/06/08 03:12:32;;;;;;;4.28;2.55;;;;;;;15.02;83.35;100891.75;5061580;28;20044;-80
2022/06/08 03:14:59;;;;;;;3.15;2.72;;;;;;;15.02;83.43;100897.03;5044162;28;20029;-80
2022/06/08 03:17:29;;;;;;;2.70;2.28;;;;;;;15.03;83.39;100900.53;5043412;28;20044;-80
2022/06/08 03:19:55;;;;;;;3.05;2.75;;;;;;;15.02;83.26;100891.75;5060962;28;20271;-81
2022/06/08 03:22:20;;;;;;;4.07;2.67;;;;;;;15.02;83.19;100888.28;5077353;28;20060;-80
2022/06/08 03:24:45;;;;;;;2.80;2.60;;;;;;;15.02;83.38;100896.19;5063715;28;20048;-80
2022/06/08 03:27:12;;;;;;;2.45;2.25;;;;;;;15.01;83.21;100887.44;5063197;28;20044;-80
2022/06/08 03:29:37;;;;;;;2.92;2.25;;;;;;;15.01;83.45;100890.06;5062758;28;20036;-80
2022/06/08 03:32:04;;;;;;;2.58;2.38;;;;;;;15.01;83.37;100892.69;5076809;28;20040;-80
2022/06/08 03:34:29;;;;;;;2.70;2.50;;;;;;;15.01;83.07;100886.56;5066432;28;20059;-80
2022/06/08 03:36:55;;;;;;;4.50;2.30;;;;;;;15.01;83.29;100886.56;5081683;28;20111;-80
2022/06/08 03:39:20;;;;;;;2.80;2.35;;;;;;;15.00;83.32;100885.72;5075271;28;20032;-80
2022/06/08 03:41:45;;;;;;;3.42;2.20;;;;;;;15.01;83.15;100882.16;5046669;28;20343;-80
2022/06/08 03:44:12;;;;;;;2.85;2.08;;;;;;;15.00;83.25;100885.72;5063030;28;20052;-80
2022/06/08 03:46:43;;;;;;;2.35;2.00;;;;;;;15.00;83.22;100885.72;5081408;28;20356;-80
2022/06/08 03:49:10;;;;;;;2.10;1.90;;;;;;;15.00;83.39;100882.25;5080884;28;20028;-80
2022/06/08 03:51:37;;;;;;;2.40;1.95;;;;;;;14.99;83.25;100878.75;5063579;28;20051;-80
2022/06/08 03:54:11;;;;;;;4.80;2.42;;;;;;;15.00;83.29;100879.59;5081635;28;20048;-80
2022/06/08 03:56:39;;;;;;;2.40;2.20;;;;;;;14.98;83.11;100872.63;5062721;28;20368;-80
2022/06/08 03:59:05;;;;;;;2.65;2.30;;;;;;;14.99;83.16;100876.13;5062665;28;20029;-80
2022/06/08 04:01:31;;;;;;;2.13;1.75;;;;;;;14.99;83.23;100873.50;5080804;28;20074;-80
2022/06/08 04:03:57;;;;;;;3.65;1.95;;;;;;;14.99;83.10;100873.50;5063638;28;20089;-80
2022/06/08 04:06:23;;;;;;;2.17;1.98;;;;;;;14.98;83.30;100864.69;5062537;28;20104;-80
2022/06/08 04:08:49;;;;;;;4.53;1.98;;;;;;;14.98;83.15;100861.22;5063305;28;20273;-80
2022/06/08 04:11:15;;;;;;;1.98;1.77;;;;;;;14.97;83.19;100855.13;5080362;28;20040;-80
2022/06/08 04:13:40;;;;;;;2.03;1.83;;;;;;;14.98;83.25;100863.88;5081179;28;20029;-80
2022/06/08 04:16:06;;;;;;;3.92;2.08;;;;;;;14.96;83.54;100861.31;5062474;28;20210;-80
2022/06/08 04:18:31;;;;;;;4.10;2.35;;;;;;;14.97;83.51;100865.66;5081026;28;20036;-80
2022/06/08 04:20:59;;;;;;;4.25;2.40;;;;;;;14.96;83.21;100863.09;5080349;28;20104;-80
2022/06/08 04:23:27;;;;;;;2.60;2.00;;;;;;;14.96;83.28;100863.94;5080597;28;20036;-80
2022/06/08 04:25:53;;;;;;;2.13;1.93;;;;;;;14.96;83.22;100861.31;5080839;27;20041;-80
2022/06/08 04:28:20;;;;;;;3.00;1.80;;;;;;;14.96;83.30;100856.03;5080430;28;20298;-80
2022/06/08 04:30:45;;;;;;;1.70;1.42;;;;;;;14.95;83.20;100862.28;5080078;28;20087;-80
2022/06/08 04:33:11;;;;;;;2.70;1.63;;;;;;;14.95;83.41;100862.28;5045571;28;20400;-80
2022/06/08 04:35:38;;;;;;;3.78;1.85;;;;;;;14.95;83.42;100854.34;5080498;28;20344;-80
2022/06/08 04:38:04;;;;;;;1.70;1.60;;;;;;;14.96;83.47;100860.47;5062475;28;20024;-80
2022/06/08 04:40:30;;;;;;;3.42;1.77;;;;;;;14.95;83.49;100862.28;5062570;28;20037;-81
2022/06/08 04:42:56;;;;;;;2.17;1.50;;;;;;;14.97;83.59;100862.16;5045969;28;20033;-80
2022/06/08 04:45:22;;;;;;;2.05;1.75;;;;;;;14.95;83.58;100858.75;5079225;28;20064;-80
2022/06/08 04:47:47;;;;;;;1.70;1.60;;;;;;;14.94;83.42;100850.00;5061358;28;20363;-80
2022/06/08 04:50:13;;;;;;;3.05;1.83;;;;;;;14.95;83.43;100845.56;5061875;28;20032;-80
2022/06/08 04:52:39;;;;;;;2.17;1.98;;;;;;;14.95;83.98;100851.72;5062910;28;20044;-80
2022/06/08 04:55:07;;;;;;;2.00;1.80;;;;;;;14.96;83.81;100847.28;5080293;28;20367;-80
2022/06/08 04:57:36;;;;;;;2.75;2.25;;;;;;;14.95;83.66;100841.16;5062211;28;20137;-80
2022/06/08 05:00:04;;;;;;;5.60;2.28;;;;;;;14.96;83.96;100842.00;5080335;28;20078;-80
2022/06/08 05:02:47;;;;;;;4.35;2.20;;;;;;;14.95;83.85;100838.53;5079881;28;20040;-80
2022/06/08 05:05:16;;;;;;;4.20;2.13;;;;;;;14.96;83.90;100840.22;5063329;28;20032;-80
2022/06/08 05:07:42;;;;;;;3.55;2.35;;;;;;;14.96;84.07;100839.38;5078933;28;20044;-80
2022/06/08 05:10:09;;;;;;;4.95;2.40;;;;;;;14.95;84.29;100841.16;5079177;28;20182;-80
2022/06/08 05:12:36;;;;;;;3.47;2.70;;;;;;;14.95;84.28;100840.31;5061881;28;20036;-80
2022/06/08 05:15:07;;;;;;;2.83;2.60;;;;;;;14.96;84.19;100834.09;5061981;28;20112;-80
2022/06/08 05:17:33;;;;;;;3.38;2.95;;;;;;;14.96;84.40;100831.47;5080042;28;20328;-80
2022/06/08 05:19:59;;;;;;;4.10;3.10;;;;;;;14.96;84.36;100829.66;5062702;28;20050;-80
2022/06/08 05:22:24;;;;;;;3.63;3.28;;;;;;;14.96;84.64;100818.28;5079441;28;20056;-79
2022/06/08 05:24:50;;;;;;;4.63;3.53;;;;;;;14.97;84.54;100814.69;5061815;28;20042;-79
2022/06/08 05:27:17;;;;;;;3.60;3.30;;;;;;;14.96;84.62;100808.56;5045516;28;20040;-78
2022/06/08 05:29:43;;;;;;;4.57;3.22;;;;;;;14.97;84.85;100812.91;5062049;28;20036;-79
2022/06/08 05:32:09;;;;;;;8.70;3.15;;;;;;;14.96;84.63;100813.84;5043631;28;20415;-79
2022/06/08 05:34:34;;;;;;;3.58;3.28;;;;;;;14.97;84.58;100812.03;5061321;28;20060;-79
2022/06/08 05:36:59;;;;;;;4.05;3.17;;;;;;;14.97;85.08;100810.28;5079046;28;20087;-79
2022/06/08 05:39:25;;;;;;;4.03;3.15;;;;;;;14.98;85.03;100811.13;5044746;28;20036;-79
2022/06/08 05:41:50;;;;;;;5.80;3.05;;;;;;;14.98;84.71;100797.94;5061275;28;20355;-79
2022/06/08 05:44:19;;;;;;;5.15;3.53;;;;;;;14.98;85.06;100801.41;5060823;28;20040;-80
2022/06/08 05:46:44;;;;;;;3.60;3.30;;;;;;;15.00;85.12;100798.69;5062209;28;20036;-79
2022/06/08 05:49:10;;;;;;;4.95;2.75;;;;;;;15.02;85.46;100796.81;5079125;28;20039;-79
2022/06/08 05:51:35;;;;;;;4.47;3.05;;;;;;;15.03;85.61;100787.13;5061846;28;20035;-79
2022/06/08 05:54:01;;;;;;;4.25;3.72;;;;;;;15.05;86.01;100787.88;5079138;28;20047;-79
2022/06/08 05:56:26;;;;;;;5.60;3.33;;;;;;;15.06;86.08;100787.78;5079066;28;20041;-79
2022/06/08 05:58:52;;;;;;;3.17;2.88;;;;;;;15.06;85.94;100776.38;5079138;28;20074;-79
2022/06/08 06:01:17;;;;;;;8.35;2.97;;;;;;;15.07;86.10;100778.91;5064400;28;20045;-79
2022/06/08 06:03:43;;;;;;;3.80;3.40;;;;;;;15.09;86.31;100777.03;5093842;28;20065;-79
2022/06/08 06:06:09;;;;;;;3.60;3.30;;;;;;;15.11;86.70;100772.50;5030479;28;20028;-79
2022/06/08 06:08:34;;;;;;;3.60;3.00;;;;;;;15.13;86.55;100775.06;5060345;28;20090;-79
2022/06/08 06:11:00;;;;;;;2.88;2.65;;;;;;;15.14;86.86;100769.69;5060949;28;20375;-79
2022/06/08 06:13:25;;;;;;;5.22;2.88;;;;;;;15.15;86.92;100774.03;5078878;28;20320;-79
2022/06/08 06:15:51;;;;;;;4.40;2.70;;;;;;;15.19;86.69;100768.56;5078950;28;20095;-79
2022/06/08 06:18:16;;;;;;;2.95;2.50;;;;;;;15.20;87.00;100765.00;5060815;28;20039;-79
2022/06/08 06:20:42;;;;;;;3.38;2.70;;;;;;;15.21;87.05;100759.63;5060612;28;20064;-79
2022/06/08 06:23:07;;;;;;;7.53;2.92;;;;;;;15.23;86.98;100763.00;5060304;28;20032;-79
2022/06/08 06:25:33;;;;;;;3.15;2.53;;;;;;;15.25;86.99;100755.00;5047523;28;20103;-79
2022/06/08 06:27:58;;;;;;;4.00;3.25;;;;;;;15.26;87.21;100768.13;5080928;28;20336;-79
2022/06/08 06:30:25;;;;;;;5.13;2.55;;;;;;;15.27;87.24;100756.59;5098349;28;20115;-79
2022/06/08 06:32:50;;;;;;;3.20;2.90;;;;;;;15.30;87.47;100759.06;5054643;28;20044;-79
2022/06/08 06:35:25;;;;;;;5.45;2.80;;;;;;;15.33;87.36;100763.28;5052340;28;20119;-79
2022/06/08 06:37:52;;;;;;;2.78;2.58;;;;;;;15.35;87.45;100766.66;5064614;28;20296;-79
2022/06/08 06:40:17;;;;;;;4.00;2.90;;;;;;;15.38;87.48;100765.66;5060003;28;20345;-79
2022/06/08 06:42:43;;;;;;;5.55;3.45;;;;;;;15.39;87.32;100765.56;5088773;28;20324;-79
2022/06/08 06:45:10;;;;;;;3.70;3.20;;;;;;;15.41;87.52;100762.81;5093646;28;20048;-79
2022/06/08 06:47:35;;;;;;;6.05;4.30;;;;;;;15.42;87.45;100757.44;5064851;28;20024;-79
2022/06/08 06:50:03;;;;;;;6.20;4.38;;;;;;;15.45;87.66;100756.41;5055673;28;20386;-79
2022/06/08 06:52:29;;;;;;;6.63;4.33;;;;;;;15.45;88.50;100757.25;5072049;28;20103;-79
2022/06/08 06:54:55;;;;;;;4.70;4.20;;;;;;;15.47;87.66;100759.81;5089037;28;20039;-79
2022/06/08 06:57:20;;;;;;;4.97;4.25;;;;;;;15.49;87.62;100758.75;5058132;28;20032;-79
2022/06/08 06:59:45;;;;;;;3.95;3.63;;;;;;;15.50;88.14;100752.53;5065424;28;20040;-79
2022/06/08 07:02:17;;;;;;;6.13;4.20;;;;;;;15.51;87.79;100746.31;5054473;28;20262;-79
2022/06/08 07:04:43;;;;;;;5.90;4.50;;;;;;;15.54;87.82;100751.41;5088922;28;20329;-80
2022/06/08 07:07:09;;;;;;;5.20;4.20;;;;;;;15.57;87.38;100742.44;5064477;28;20036;-80
2022/06/08 07:09:35;;;;;;;6.60;4.45;;;;;;;15.60;87.49;100741.41;5077934;28;20605;-80
2022/06/08 07:12:00;;;;;;;5.03;4.47;;;;;;;15.63;87.60;100749.97;5049320;28;20040;-80
2022/06/08 07:14:26;;;;;;;5.95;5.38;;;;;;;15.64;88.57;100742.91;5088955;28;20112;-80
2022/06/08 07:16:52;;;;;;;7.20;6.07;;;;;;;15.68;88.81;100734.69;5097124;28;20103;-80
2022/06/08 07:19:18;;;;;;;7.88;6.20;;;;;;;15.70;88.60;100729.31;5065095;28;20390;-80
2022/06/08 07:21:44;;;;;;;5.72;5.13;;;;;;;15.75;88.75;100729.88;5064380;28;20043;-80
2022/06/08 07:24:16;;;;;;;9.90;5.43;;;;;;;15.79;88.68;100730.53;5098348;28;20072;-80
2022/06/08 07:26:42;;;;;;;5.10;4.50;;;;;;;15.81;88.58;100731.28;5100559;28;20043;-80
2022/06/08 07:29:07;;;;;;;5.88;5.38;;;;;;;15.84;88.50;100733.72;5084121;28;20029;-80
2022/06/08 07:31:33;;;;;;;9.70;5.45;;;;;;;15.87;88.43;100722.97;5098877;28;20027;-80
2022/06/08 07:33:58;;;;;;;9.77;5.20;;;;;;;15.90;88.12;100728.06;5078094;28;20043;-80
2022/06/08 07:36:24;;;;;;;7.70;5.03;;;;;;;15.91;87.95;100725.31;5105011;28;20024;-80
2022/06/08 07:38:49;;;;;;;9.48;5.10;;;;;;;15.93;87.95;100719.94;5109372;28;20045;-80
2022/06/08 07:41:15;;;;;;;8.10;5.60;;;;;;;15.96;87.91;100721.53;5095922;28;20038;-80
2022/06/08 07:43:41;;;;;;;5.45;4.90;;;;;;;15.97;87.99;100718.81;5098799;28;20028;-80
2022/06/08 07:46:06;;;;;;;6.35;5.38;;;;;;;16.01;88.08;100719.44;5072833;28;20044;-80
2022/06/08 07:51:17;;;;;;;4.63;4.20;;;;;;;16.04;87.65;100719.22;5079298;28;20031;-80
2022/06/08 07:53:42;;;;;;;5.88;5.38;;;;;;;16.05;87.60;100719.13;5087992;28;20035;-80
2022/06/08 07:56:08;;;;;;;5.53;5.03;;;;;;;16.08;87.80;100715.44;5064516;28;20421;-80
2022/06/08 07:58:33;;;;;;;7.90;6.53;;;;;;;16.11;87.96;100712.59;5082071;28;20044;-80
2022/06/08 08:00:59;;;;;;;6.93;6.28;;;;;;;16.15;87.71;100715.88;5062769;28;20077;-80
2022/06/08 08:03:25;;;;;;;8.43;7.63;;;;;;;16.18;88.29;100711.25;5025985;28;20040;-79
2022/06/08 08:05:51;;;;;;;11.30;7.82;;;;;;;16.24;88.87;100723.19;5085924;28;20040;-80
2022/06/08 08:08:19;;;;;;;7.07;6.38;;;;;;;16.25;87.90;100715.19;5074379;28;20015;-80
2022/06/08 08:10:45;;;;;;;9.23;7.47;;;;;;;16.29;87.61;100714.03;5077201;28;20107;-80
2022/06/08 08:13:12;;;;;;;10.43;8.10;;;;;;;16.31;87.88;100720.03;5086140;28;20044;-80
2022/06/08 08:15:39;;;;;;;11.23;7.63;;;;;;;16.35;87.63;100720.69;5057129;28;20024;-80
2022/06/08 08:18:05;;;;;;;8.30;7.28;;;;;;;16.38;87.70;100715.22;5091319;28;20117;-80
2022/06/08 08:20:31;;;;;;;7.38;6.78;;;;;;;16.40;87.81;100718.59;5078976;28;20294;-80
2022/06/08 08:22:58;;;;;;;9.80;6.82;;;;;;;16.44;87.74;100712.13;5049086;28;20055;-80
2022/06/08 08:25:24;;;;;;;6.47;5.80;;;;;;;16.47;88.17;100716.38;5046907;28;20040;-80
2022/06/08 08:27:51;;;;;;;7.22;6.43;;;;;;;16.51;87.70;100708.13;5051250;28;20032;-80
2022/06/08 08:30:20;;;;;;;8.13;6.50;;;;;;;16.55;88.04;100714.06;5064697;28;20033;-80
2022/06/08 08:32:45;;;;;;;7.38;6.63;;;;;;;16.59;88.03;100712.06;5067037;28;20040;-80
2022/06/08 08:35:12;;;;;;;6.55;6.13;;;;;;;16.61;87.82;100708.38;5048975;28;20088;-80
2022/06/08 08:37:37;;;;;;;13.45;7.38;;;;;;;16.64;87.77;100707.31;5053956;28;20022;-80
2022/06/08 08:40:05;;;;;;;9.82;6.85;;;;;;;16.65;87.71;100709.00;5029483;28;20067;-80
2022/06/08 08:42:31;;;;;;;11.60;7.55;;;;;;;16.66;88.19;100710.69;5064426;28;20036;-80
2022/06/08 08:45:05;;;;;;;10.65;7.43;;;;;;;16.65;87.71;100712.50;5040117;28;20067;-80
2022/06/08 08:47:50;;;;;;;7.63;6.85;;;;;;;16.66;87.65;100714.19;5075662;28;20039;-80
2022/06/08 08:50:25;;;;;;;13.65;6.93;;;;;;;16.67;87.43;100710.59;5055255;28;20083;-80
2022/06/08 08:53:13;;;;;;;8.70;7.90;;;;;;;16.68;87.85;100712.28;5061774;28;20049;-80
2022/06/08 08:56:11;;;;;;;7.93;6.32;;;;;;;16.69;87.78;100716.63;5059127;28;20316;-80
2022/06/08 08:58:40;;;;;;;7.95;5.97;;;;;;;16.70;87.85;100709.56;5055665;28;20579;-80
2022/06/08 09:01:23;;;;;;;6.10;5.47;;;;;;;16.70;87.46;100710.38;5064240;28;20036;-80
2022/06/08 09:04:22;;;;;;;9.38;4.82;;;;;;;16.69;87.38;100715.78;5070033;28;20029;-80
2022/06/08 09:06:47;;;;;;;5.60;4.88;;;;;;;16.67;87.30;100710.59;5065183;28;20045;-80
2022/06/08 09:09:18;;;;;;;8.88;4.75;;;;;;;16.66;87.52;100718.63;5052624;28;20044;-80
2022/06/08 09:11:45;;;;;;;5.70;4.38;;;;;;;16.64;87.50;100721.38;5053352;28;20020;-80
2022/06/08 09:14:23;;;;;;;8.90;5.05;;;;;;;16.61;87.86;100721.59;5068670;28;20041;-80
2022/06/08 09:16:52;;;;;;;6.68;4.57;;;;;;;16.60;87.75;100719.88;5047544;28;20283;-80
2022/06/08 09:19:35;;;;;;;;;;;;;;;16.59;87.81;100720.84;5048948;28;20028;-80
2022/06/08 09:22:04;;;;;;;5.85;4.45;;;;;;;16.57;87.96;100725.41;5076832;28;20097;-80
2022/06/08 09:24:39;;;;;;;5.57;5.05;;;;;;;16.54;88.81;100730.88;5081502;28;20055;-80
2022/06/08 09:27:28;;;;;;;10.13;5.28;;;;;;;16.52;88.37;100732.78;5066841;28;20327;-81
2022/06/08 09:30:12;;;;;;;6.82;4.55;;;;;;;16.50;88.27;100724.97;5078844;28;20044;-80
2022/06/08 09:32:37;;;;;;;7.05;4.57;;;;;;;16.48;88.50;100718.06;5069305;28;20340;-80
2022/06/08 09:35:26;;;;;;;5.30;4.30;;;;;;;16.45;88.57;100719.13;5073670;28;20051;-80
2022/06/08 09:37:53;;;;;;;;;;;;;;;16.43;89.05;100721.03;5081984;28;20285;-80
2022/06/08 09:40:36;;;;;;;7.13;3.90;;;;;;;16.40;89.00;100713.31;5093719;28;19916;-80
2022/06/08 09:43:31;;;;;;;5.15;3.58;;;;;;;16.38;89.17;100719.66;5063193;28;20346;-82
2022/06/08 09:46:07;;;;;;;5.00;3.78;;;;;;;16.35;88.93;100704.81;5047279;28;20067;-80
2022/06/08 09:51:35;;;;;;;5.70;3.88;;;;;;;16.28;89.57;100722.91;5077993;28;20098;-81
2022/06/08 09:54:15;;;;;;;5.05;3.63;;;;;;;16.27;89.54;100715.91;5085554;28;20032;-81
2022/06/08 09:57:31;;;;;;;5.93;3.90;;;;;;;16.24;90.24;100721.41;5076924;28;20055;-80
2022/06/08 10:00:24;;;;;;;7.85;3.78;;;;;;;16.24;89.86;100723.19;5080546;28;20068;-80
2022/06/08 10:03:29;;;;;;;8.93;3.15;;;;;;;16.20;nan;100725.19;5060813;28;20047;-80
2022/06/08 10:06:26;;;;;;;3.42;2.47;;;;;;;16.19;89.90;100726.16;5079618;28;20383;-80
2022/06/08 10:09:10;;;;;;;3.80;2.70;;;;;;;16.19;89.46;100734.09;5062813;28;20035;-80
2022/06/08 10:11:51;;;;;;;4.10;2.30;;;;;;;16.16;89.44;100733.44;5065212;28;20070;-80
2022/06/08 10:14:30;;;;;;;3.88;1.98;;;;;;;16.15;89.42;100729.09;5087701;28;20020;-80
2022/06/08 10:17:18;;;;;;;;;;;;;;;16.12;88.82;100727.53;5085203;28;20036;-80
2022/06/08 10:20:22;;;;;;;6.45;1.70;;;;;;;16.11;88.66;100715.25;5061108;28;20262;-80
2022/06/08 10:22:53;;;;;;;5.00;1.70;;;;;;;16.07;88.72;100719.88;5075073;28;20040;-80
2022/06/08 10:25:34;;;;;;;3.40;1.58;;;;;;;16.06;88.54;100727.91;5077709;28;20043;-80
2022/06/08 10:28:12;;;;;;;3.75;1.50;;;;;;;16.03;88.41;100723.69;5087147;28;20095;-80
2022/06/08 10:30:51;;;;;;;3.67;1.65;;;;;;;16.03;88.75;100725.47;5082773;28;20101;-80
2022/06/08 10:33:23;;;;;;;4.47;1.60;;;;;;;16.02;88.61;100726.41;5078484;28;20028;-80
2022/06/08 10:35:55;;;;;;;5.30;2.05;;;;;;;16.00;88.71;100730.94;5059557;28;20320;-80
2022/06/08 10:38:33;;;;;;;5.53;2.00;;;;;;;15.98;88.66;100720.47;5079086;28;20036;-80
2022/06/08 10:42:39;;;;;;;3.38;1.90;;;;;;;15.99;88.67;100726.59;5082693;28;20338;-80
2022/06/08 10:43:51;;;;;;;5.05;1.83;;;;;;;15.97;89.02;100724.09;5088719;28;20116;-80
2022/06/08 10:46:39;;;;;;;4.13;1.70;;;;;;;15.98;88.81;100736.34;5083242;28;20020;-80
2022/06/08 10:49:04;;;;;;;3.08;1.60;;;;;;;15.96;88.85;100726.81;5077465;28;20040;-80
2022/06/08 10:51:35;;;;;;;2.17;1.55;;;;;;;15.95;88.92;100728.59;5069298;28;20025;-80
2022/06/08 10:56:48;;;;;;;1.77;1.15;;;;;;;15.94;88.72;100726.91;5078277;28;20044;-80
2022/06/08 10:59:18;;;;;;;3.13;1.75;;;;;;;15.89;88.39;100724.56;5059409;28;20028;-80
2022/06/08 11:01:56;;;;;;;4.75;1.85;;;;;;;15.90;88.56;100723.63;5077223;28;20031;-80
2022/06/08 11:04:29;;;;;;;1.90;1.20;;;;;;;15.90;88.50;100728.06;5058627;28;20032;-80
2022/06/08 11:07:05;;;;;;;1.75;1.50;;;;;;;15.89;88.61;100729.84;5078839;28;20073;-80
2022/06/08 11:09:34;;;;;;;3.33;1.73;;;;;;;15.88;88.67;100725.53;5059990;28;20136;-80
2022/06/08 11:12:11;;;;;;;3.53;1.60;;;;;;;15.89;88.83;100726.38;5070892;28;20519;-80
2022/06/08 11:14:43;;;;;;;1.73;1.20;;;;;;;15.85;88.70;100720.44;5081690;28;20036;-80
2022/06/08 11:17:25;;;;;;;5.15;1.75;;;;;;;15.85;88.76;100712.50;5080213;28;20107;-80
2022/06/08 11:19:54;;;;;;;12.20;1.67;;;;;;;15.85;88.70;100722.25;5064202;28;20104;-80
2022/06/08 11:22:45;;;;;;;4.93;1.75;;;;;;;15.81;89.03;100713.66;5084704;28;20051;-80
2022/06/08 11:25:22;;;;;;;3.78;1.30;;;;;;;15.80;89.12;100706.69;5060124;28;20095;-80
2022/06/08 11:28:22;;;;;;;3.10;1.98;;;;;;;15.78;89.34;100711.22;5091131;28;20047;-80
2022/06/08 11:30:49;;;;;;;2.45;1.40;;;;;;;15.77;89.37;100714.81;5082320;28;20243;-80
2022/06/08 11:33:18;;;;;;;1.70;1.40;;;;;;;15.76;89.55;100704.34;5084456;28;20070;-81
2022/06/08 11:36:10;;;;;;;1.50;1.40;;;;;;;15.77;89.86;100703.38;5081939;28;20043;-80
2022/06/08 11:38:58;;;;;;;3.33;1.40;;;;;;;15.76;89.93;100696.44;5065434;28;20055;-80
2022/06/08 11:41:41;;;;;;;3.25;1.42;;;;;;;15.75;90.09;100700.84;5065454;28;20458;-80
2022/06/08 11:44:19;;;;;;;1.60;1.40;;;;;;;15.74;90.11;100696.53;5080672;28;20110;-80
2022/06/08 11:46:50;;;;;;;2.08;1.40;;;;;;;15.75;90.24;100692.91;5083619;28;20031;-80
2022/06/08 11:49:32;;;;;;;6.82;1.50;;;;;;;15.75;90.15;100698.19;5080026;28;20291;-80
2022/06/08 11:51:58;;;;;;;2.47;1.20;;;;;;;15.74;90.24;100689.44;5074447;28;20067;-81
2022/06/08 11:54:31;;;;;;;2.13;1.33;;;;;;;15.72;90.27;100686.03;5062972;28;20328;-81
2022/06/08 11:57:04;;;;;;;3.35;1.70;;;;;;;15.72;90.68;100678.09;5059371;28;20025;-81
2022/06/08 11:59:36;;;;;;;1.90;1.42;;;;;;;15.73;90.53;100684.22;5051133;28;20032;-81